South Plainfield, NJ (07080)

3:47 AM EDT on September 02, 2014 (GMT -0400)
Bunny Cove Farm-South Plainfield | Change Station
CLOSE
Current Station
Personal Weather Station
Location: South Plainfield, NJ
Elevation: 83 ft
Nearby Weather Stations

Elev 83 ft 40.58 °N, 74.41 °W | Updated 1 second ago

Clear
Clear
73.9 °F
Feels Like 70 °F
N
0.0
Wind Variable Wind from South
Gusts 0.0 mph

Today
High -- | Low -- °F
--% Chance of Precip.
Yesterday
High -- | Low -- °F
Precip. -- in
6:25 AM 7:28 PM
Waxing Crescent, 49% visible
Pressure 29.94 in
Visibility 10.0 miles
Clouds Clear
Heat Index 70 °F
Dew Point 73 °F
Humidity 97%
Rainfall 0.00 in
Snow Depth Not available.
UV 0 out of 12
Pollen 5.00 out of 12
Air Quality Not available.
Flu Activity Not available.
METAR KLDJ 020735Z AUTO 27003KT 10SM CLR 27/25 A2994 RMK AO2 T02700247

More Conditions Fewer Conditions

Pressure 29.94 in
Visibility 10.0 miles
Clouds Clear
Heat Index 70 °F
Dew Point 73 °F
Humidity 97%
Rainfall 0.00 in
Snow Depth Not available.
UV 0 out of 12
Pollen 5.00 out of 12
Air Quality Not available.
Flu Activity Not available.
METAR KLDJ 020735Z AUTO 27003KT 10SM CLR 27/25 A2994 RMK AO2 T02700247

More Conditions Fewer Conditions

10-Day Weather Forecast

Almanac

Astronomy

Sep. 02, 2014 Rise Set
Actual Time 6:25 AM EDT 7:28 PM EDT
Civil Twilight 5:57 AM EDT 7:56 PM EDT
Nautical Twilight 5:24 AM EDT 8:29 PM EDT
Astronomical Twilight 4:49 AM EDT 9:03 PM EDT
Moon 2:09 PM EDT No Moon Set
Length of Visible Light 13h 58m
Length of Day
13h 02m
Tomorrow will be 2m 37s shorter.
Waxing Crescent, 49% of the Moon is Illuminated
Today
Waxing Crescent
Sep 2
First Quarter
Sep 8
Full
Sep 15
Last Quarter
Sep 24
New

Today's Extremes

State Highs State Lows

Community

WunderPhotos

Upload Photos

1,749,589 photos uploaded!

WunderBlogs® & News

Nearby

Snow Depth

Station Depth Elevation
No new snow has been reported.

Earthquake Activity

City Distance Mag. Time & Date
No recent earthquake activity has been reported nearby.
Minimum magnitude displayed is 2.5.

Coastal Water Temperatures

Place Temperature
Sandy Hook, NJ 77.0 °F
The Battery, NY 73.9 °F
Bergen Point West Reach, NJ 75.0 °F
Kings Point, NY 73.9 °F

Nearby Weather Stations